Time;durP1;ratioP1;P1;durP2;ratioP2;P2;SDS_P1;SDS_P2;PMS_P1;PMS_P2;Temp;Humidity;BMP_temperature;BMP_pressure;BME280_temperature;BME280_humidity;BME280_pressure;Samples;Min_cycle;Max_cycle;Signal;HPM_P1;HPM_P2
2022/10/09 00:01:34;;;;;;;72.47;68.10;;;;;;;;;;10143723;28;20048;-67
2022/10/09 00:06:33;;;;;;;67.25;63.45;;;;;;;;;;10141271;28;20050;-68
2022/10/09 00:11:30;;;;;;;69.40;64.93;;;;;;;;;;10141239;28;20636;-68
2022/10/09 00:16:27;;;;;;;71.78;67.35;;;;;;;;;;10147726;28;20051;-68
2022/10/09 00:21:27;;;;;;;67.68;63.20;;;;;;;;;;10151339;28;20042;-66
2022/10/09 00:26:24;;;;;;;70.95;66.97;;;;;;;;;;10155430;28;20043;-66
2022/10/09 00:31:21;;;;;;;74.47;69.97;;;;;;;;;;10153023;28;20553;-66
2022/10/09 00:36:22;;;;;;;78.30;72.93;;;;;;;;;;10151419;28;20038;-66
2022/10/09 00:41:20;;;;;;;76.30;71.32;;;;;;;;;;10151658;28;20043;-68
2022/10/09 00:46:24;;;;;;;80.03;75.55;;;;;;;;;;10157986;28;20057;-68
2022/10/09 00:51:20;;;;;;;76.82;72.03;;;;;;;;;;10152133;28;20054;-67
2022/10/09 00:56:17;;;;;;;79.60;74.90;;;;;;;;;;10148650;28;20528;-68
2022/10/09 01:01:13;;;;;;;80.15;75.32;;;;;;;;;;10151147;28;20048;-67
2022/10/09 01:06:16;;;;;;;80.30;75.40;;;;;;;;;;10147084;28;20083;-67
2022/10/09 01:11:31;;;;;;;81.43;75.97;;;;;;;;;;10145546;28;20400;-67
2022/10/09 01:16:29;;;;;;;81.68;76.95;;;;;;;;;;10152859;28;20046;-67
2022/10/09 01:21:44;;;;;;;88.07;82.90;;;;;;;;;;10150666;28;20046;-66
2022/10/09 01:26:55;;;;;;;87.30;81.78;;;;;;;;;;10147576;28;20051;-66
2022/10/09 01:31:52;;;;;;;83.05;78.35;;;;;;;;;;10146300;28;20047;-68
2022/10/09 01:36:50;;;;;;;80.75;76.15;;;;;;;;;;10151659;28;20046;-67
2022/10/09 01:41:47;;;;;;;82.38;77.85;;;;;;;;;;10150938;28;20381;-68
2022/10/09 01:46:43;;;;;;;86.63;81.38;;;;;;;;;;10148795;28;20049;-68
2022/10/09 01:51:45;;;;;;;87.72;82.22;;;;;;;;;;10148062;28;20513;-68
2022/10/09 01:56:43;;;;;;;90.82;84.93;;;;;;;;;;10139529;28;20052;-68
2022/10/09 02:01:41;;;;;;;84.18;79.38;;;;;;;;;;10155126;28;20043;-67
2022/10/09 02:06:39;;;;;;;91.82;85.78;;;;;;;;;;10142288;28;20460;-68
2022/10/09 02:11:36;;;;;;;91.82;86.00;;;;;;;;;;10149120;28;20061;-68
2022/10/09 02:16:37;;;;;;;83.18;77.95;;;;;;;;;;10145994;28;20069;-68
2022/10/09 02:21:45;;;;;;;88.05;82.72;;;;;;;;;;10149716;28;20042;-68
2022/10/09 02:26:45;;;;;;;85.32;80.32;;;;;;;;;;10137109;28;20034;-68
2022/10/09 02:31:42;;;;;;;75.60;70.55;;;;;;;;;;10141876;28;20053;-68
2022/10/09 02:36:39;;;;;;;69.97;66.10;;;;;;;;;;10140814;28;20520;-67
2022/10/09 02:41:35;;;;;;;74.10;69.85;;;;;;;;;;10145905;28;20061;-66
2022/10/09 02:46:32;;;;;;;72.25;67.68;;;;;;;;;;10147226;28;20050;-68
2022/10/09 02:51:28;;;;;;;65.45;61.70;;;;;;;;;;10152895;28;20038;-68
2022/10/09 02:56:25;;;;;;;63.42;59.42;;;;;;;;;;10151464;28;20042;-68
2022/10/09 03:01:21;;;;;;;59.50;55.38;;;;;;;;;;10145117;28;20049;-68
2022/10/09 03:06:19;;;;;;;59.45;55.75;;;;;;;;;;10148235;28;20038;-68
2022/10/09 03:11:17;;;;;;;61.03;57.38;;;;;;;;;;10150603;28;20382;-68
2022/10/09 03:16:15;;;;;;;61.92;58.03;;;;;;;;;;10140466;28;20046;-67
2022/10/09 03:21:13;;;;;;;60.83;56.80;;;;;;;;;;10146550;28;20622;-68
2022/10/09 03:26:11;;;;;;;60.90;57.50;;;;;;;;;;10149345;28;20073;-68
2022/10/09 03:31:07;;;;;;;59.78;56.28;;;;;;;;;;10142412;28;20084;-68
2022/10/09 03:36:04;;;;;;;60.45;57.03;;;;;;;;;;10141944;28;20050;-68
2022/10/09 03:41:01;;;;;;;65.10;61.10;;;;;;;;;;10145691;28;20050;-68
2022/10/09 03:45:58;;;;;;;66.38;62.40;;;;;;;;;;10153926;28;20129;-68
2022/10/09 03:50:56;;;;;;;68.88;64.75;;;;;;;;;;10144927;28;20050;-68
2022/10/09 03:55:52;;;;;;;68.03;63.78;;;;;;;;;;10148950;28;20050;-68
2022/10/09 04:00:49;;;;;;;72.78;68.25;;;;;;;;;;10147035;28;20149;-67
2022/10/09 04:05:46;;;;;;;68.80;64.97;;;;;;;;;;10153444;28;20043;-67
2022/10/09 04:10:42;;;;;;;69.88;65.75;;;;;;;;;;10149403;28;20042;-68
2022/10/09 04:15:38;;;;;;;70.40;66.45;;;;;;;;;;10159856;28;20050;-68
2022/10/09 04:20:34;;;;;;;68.60;64.35;;;;;;;;;;10151156;28;20038;-68
2022/10/09 04:25:30;;;;;;;70.75;66.40;;;;;;;;;;10138304;28;20047;-67
2022/10/09 04:30:27;;;;;;;71.20;66.95;;;;;;;;;;10144072;28;20048;-68
2022/10/09 04:35:23;;;;;;;70.72;66.53;;;;;;;;;;10148800;28;20043;-68
2022/10/09 04:40:19;;;;;;;71.70;67.68;;;;;;;;;;10148528;28;20054;-68
2022/10/09 04:45:15;;;;;;;73.20;69.18;;;;;;;;;;10157424;28;20060;-67
2022/10/09 04:50:13;;;;;;;67.63;63.97;;;;;;;;;;10151446;28;20054;-68
2022/10/09 04:55:10;;;;;;;70.82;66.80;;;;;;;;;;10155351;28;20048;-69
2022/10/09 05:00:06;;;;;;;73.28;69.07;;;;;;;;;;10144468;28;20057;-68
2022/10/09 05:05:03;;;;;;;72.50;68.15;;;;;;;;;;10147272;28;20054;-68
2022/10/09 05:09:59;;;;;;;75.07;70.80;;;;;;;;;;10152187;28;20409;-68
2022/10/09 05:14:55;;;;;;;72.20;68.15;;;;;;;;;;10152974;28;20038;-68
2022/10/09 05:19:52;;;;;;;73.60;69.45;;;;;;;;;;10147122;28;20557;-68
2022/10/09 05:24:48;;;;;;;70.72;66.63;;;;;;;;;;10154293;28;20047;-68
2022/10/09 05:29:44;;;;;;;71.00;66.90;;;;;;;;;;10135225;28;20046;-68
2022/10/09 05:34:41;;;;;;;74.57;70.18;;;;;;;;;;10144979;28;20045;-68
2022/10/09 05:39:38;;;;;;;72.40;68.13;;;;;;;;;;10151775;28;20046;-67
2022/10/09 05:44:34;;;;;;;72.63;68.63;;;;;;;;;;10147160;28;20046;-68
2022/10/09 05:49:30;;;;;;;67.47;63.35;;;;;;;;;;10149659;28;20057;-68
2022/10/09 05:54:27;;;;;;;74.60;70.13;;;;;;;;;;10149640;28;20540;-68
2022/10/09 05:59:23;;;;;;;65.50;61.85;;;;;;;;;;10145633;28;20051;-69
2022/10/09 06:04:20;;;;;;;70.78;66.65;;;;;;;;;;10145924;28;20063;-68
2022/10/09 06:09:21;;;;;;;68.70;64.93;;;;;;;;;;10144912;28;20046;-68
2022/10/09 06:14:20;;;;;;;73.25;69.18;;;;;;;;;;10146551;28;20042;-68
2022/10/09 06:19:18;;;;;;;69.82;65.93;;;;;;;;;;10141727;28;20557;-68
2022/10/09 06:24:19;;;;;;;71.70;67.80;;;;;;;;;;10145040;28;20145;-67
2022/10/09 06:29:22;;;;;;;69.78;65.78;;;;;;;;;;10140316;28;20054;-68
2022/10/09 06:34:19;;;;;;;73.25;69.00;;;;;;;;;;10144710;28;20042;-67
2022/10/09 06:39:15;;;;;;;77.10;72.50;;;;;;;;;;10155373;28;20450;-67
2022/10/09 06:44:12;;;;;;;74.10;69.65;;;;;;;;;;10146501;28;20042;-67
2022/10/09 06:49:12;;;;;;;75.20;71.10;;;;;;;;;;10147076;28;20057;-67
2022/10/09 06:54:13;;;;;;;76.15;72.13;;;;;;;;;;10143000;28;20540;-67
2022/10/09 06:59:09;;;;;;;79.15;74.95;;;;;;;;;;10153504;28;20104;-67
2022/10/09 07:04:08;;;;;;;79.70;75.07;;;;;;;;;;10148571;28;20130;-68
2022/10/09 07:09:05;;;;;;;78.07;73.55;;;;;;;;;;10151736;28;20837;-68
2022/10/09 07:14:03;;;;;;;79.07;74.47;;;;;;;;;;10152986;28;20065;-67
2022/10/09 07:19:02;;;;;;;76.53;72.10;;;;;;;;;;10151369;28;20042;-68
2022/10/09 07:23:59;;;;;;;79.55;75.05;;;;;;;;;;10154981;28;20052;-68
2022/10/09 07:28:56;;;;;;;80.10;75.55;;;;;;;;;;10144567;28;20693;-67
2022/10/09 07:33:52;;;;;;;80.45;75.82;;;;;;;;;;10142412;28;20046;-67
2022/10/09 07:38:50;;;;;;;81.28;76.38;;;;;;;;;;10134377;28;20402;-69
2022/10/09 07:43:49;;;;;;;84.45;79.72;;;;;;;;;;10145896;28;20047;-68
2022/10/09 07:48:45;;;;;;;88.82;83.55;;;;;;;;;;10140860;28;20419;-68
2022/10/09 07:53:41;;;;;;;89.43;84.22;;;;;;;;;;10141300;28;20046;-67
2022/10/09 07:58:38;;;;;;;92.15;85.97;;;;;;;;;;10142323;28;20487;-68
2022/10/09 08:03:34;;;;;;;89.05;84.05;;;;;;;;;;10136231;28;20046;-66
2022/10/09 08:08:31;;;;;;;98.95;93.38;;;;;;;;;;10147528;28;20702;-68
2022/10/09 08:13:27;;;;;;;92.07;86.28;;;;;;;;;;10141581;28;20046;-68
2022/10/09 08:18:24;;;;;;;97.13;91.53;;;;;;;;;;10134987;28;20049;-67
2022/10/09 08:23:20;;;;;;;92.88;87.78;;;;;;;;;;10144179;28;20416;-67
2022/10/09 08:28:16;;;;;;;92.60;87.55;;;;;;;;;;10147093;28;20046;-67
2022/10/09 08:33:13;;;;;;;94.35;89.00;;;;;;;;;;10148879;28;20211;-68
2022/10/09 08:38:09;;;;;;;95.55;89.80;;;;;;;;;;10157303;28;20517;-67
2022/10/09 08:43:33;;;;;;;96.32;91.18;;;;;;;;;;10147063;28;20057;-67
2022/10/09 08:48:33;;;;;;;89.40;84.47;;;;;;;;;;10143022;28;20049;-69
2022/10/09 08:53:29;;;;;;;91.35;86.40;;;;;;;;;;10145301;28;20599;-69
2022/10/09 08:58:32;;;;;;;91.55;86.45;;;;;;;;;;10147051;28;20054;-69
2022/10/09 09:03:32;;;;;;;81.43;76.90;;;;;;;;;;10139196;28;20047;-69
2022/10/09 09:08:28;;;;;;;56.20;52.85;;;;;;;;;;10139391;28;20046;-69
2022/10/09 09:13:34;;;;;;;44.42;41.58;;;;;;;;;;10140518;28;20079;-69
2022/10/09 09:18:36;;;;;;;36.67;34.25;;;;;;;;;;10143325;28;20517;-69
2022/10/09 09:23:41;;;;;;;36.65;34.17;;;;;;;;;;10125217;28;20050;-69
2022/10/09 09:28:38;;;;;;;32.92;30.85;;;;;;;;;;10159852;28;20048;-69
2022/10/09 09:33:42;;;;;;;29.15;27.23;;;;;;;;;;10148078;28;20043;-69
2022/10/09 09:38:40;;;;;;;26.63;24.65;;;;;;;;;;10154629;28;20046;-69
2022/10/09 09:43:56;;;;;;;25.35;23.58;;;;;;;;;;10148961;28;20156;-69
2022/10/09 09:48:53;;;;;;;24.70;22.55;;;;;;;;;;10143577;28;20423;-68
2022/10/09 09:53:54;;;;;;;27.42;24.92;;;;;;;;;;10141561;28;20046;-68
2022/10/09 09:58:54;;;;;;;25.50;23.50;;;;;;;;;;10150587;28;20078;-69
2022/10/09 10:03:52;;;;;;;21.48;19.60;;;;;;;;;;10145695;28;20052;-69
2022/10/09 10:08:59;;;;;;;17.60;16.05;;;;;;;;;;10149182;28;20042;-69
2022/10/09 10:13:55;;;;;;;17.50;15.70;;;;;;;;;;10142674;28;20042;-69
2022/10/09 10:18:53;;;;;;;15.98;14.55;;;;;;;;;;10152772;28;20416;-68
2022/10/09 10:23:59;;;;;;;14.60;13.18;;;;;;;;;;10145915;28;20042;-70
2022/10/09 10:29:03;;;;;;;12.57;11.68;;;;;;;;;;10156477;28;20034;-67
2022/10/09 10:34:01;;;;;;;11.27;10.35;;;;;;;;;;10147472;28;20045;-68
2022/10/09 10:39:03;;;;;;;13.32;11.35;;;;;;;;;;10151071;28;20385;-68
2022/10/09 10:44:00;;;;;;;;;;;;;;;;;;10154160;28;20046;-68
2022/10/09 10:48:57;;;;;;;10.75;9.80;;;;;;;;;;10150668;28;19925;-68
2022/10/09 10:53:53;;;;;;;11.48;10.32;;;;;;;;;;10151975;28;20041;-68
2022/10/09 10:59:10;;;;;;;11.02;8.73;;;;;;;;;;10146241;28;20058;-68
2022/10/09 11:04:12;;;;;;;12.60;8.68;;;;;;;;;;10148475;28;20053;-69
2022/10/09 11:09:27;;;;;;;12.70;9.65;;;;;;;;;;10154425;28;20534;-68
2022/10/09 11:14:23;;;;;;;11.68;8.15;;;;;;;;;;10154678;28;20041;-68
2022/10/09 11:19:28;;;;;;;10.90;7.90;;;;;;;;;;10147990;28;20047;-68
2022/10/09 11:24:27;;;;;;;8.75;7.75;;;;;;;;;;10158543;28;20050;-67
2022/10/09 11:29:30;;;;;;;9.52;6.80;;;;;;;;;;10139482;28;20038;-67
2022/10/09 11:34:34;;;;;;;8.20;6.88;;;;;;;;;;10152868;28;20089;-69
2022/10/09 11:39:31;;;;;;;7.75;6.20;;;;;;;;;;10154174;28;20046;-67
2022/10/09 11:44:30;;;;;;;7.68;5.57;;;;;;;;;;10146920;28;20073;-67
2022/10/09 11:49:38;;;;;;;5.68;5.03;;;;;;;;;;10156273;28;20086;-69
2022/10/09 11:54:35;;;;;;;9.27;5.50;;;;;;;;;;10153635;28;20045;-69
2022/10/09 11:59:34;;;;;;;6.22;5.22;;;;;;;;;;10150488;28;20579;-68
2022/10/09 12:04:31;;;;;;;9.43;5.07;;;;;;;;;;10148622;28;20057;-70
2022/10/09 12:09:47;;;;;;;11.73;5.70;;;;;;;;;;10143061;28;20085;-70
2022/10/09 12:14:45;;;;;;;10.80;6.15;;;;;;;;;;10154706;28;20069;-71
2022/10/09 12:19:42;;;;;;;6.43;5.45;;;;;;;;;;10154151;28;20046;-71
2022/10/09 12:24:41;;;;;;;10.65;5.82;;;;;;;;;;10162020;28;20058;-71
2022/10/09 12:29:45;;;;;;;7.32;5.32;;;;;;;;;;10150400;28;20053;-71
2022/10/09 12:34:44;;;;;;;9.93;4.60;;;;;;;;;;10148487;28;20286;-71
2022/10/09 12:39:41;;;;;;;6.38;4.55;;;;;;;;;;10146938;28;20043;-68
2022/10/09 12:44:40;;;;;;;6.72;4.80;;;;;;;;;;10151886;28;20050;-70
2022/10/09 12:49:37;;;;;;;7.97;4.80;;;;;;;;;;10142326;28;20042;-71
2022/10/09 12:54:40;;;;;;;6.55;3.95;;;;;;;;;;10149177;28;20528;-69
2022/10/09 12:59:36;;;;;;;5.22;4.72;;;;;;;;;;10147369;28;20133;-70
2022/10/09 13:04:33;;;;;;;9.95;5.18;;;;;;;;;;10151508;28;20130;-70
2022/10/09 13:09:33;;;;;;;7.97;4.70;;;;;;;;;;10136619;28;20054;-69
2022/10/09 13:14:51;;;;;;;10.27;5.35;;;;;;;;;;10134646;28;20043;-69
2022/10/09 13:19:51;;;;;;;7.00;4.53;;;;;;;;;;10144641;28;20042;-69
2022/10/09 13:24:55;;;;;;;10.43;4.60;;;;;;;;;;10150215;28;20054;-69
2022/10/09 13:29:51;;;;;;;9.02;4.50;;;;;;;;;;10147177;28;20435;-70
2022/10/09 13:34:48;;;;;;;5.55;4.20;;;;;;;;;;10153605;28;20061;-70
2022/10/09 13:39:45;;;;;;;9.80;5.07;;;;;;;;;;10146184;28;20078;-70
2022/10/09 13:44:41;;;;;;;8.30;4.20;;;;;;;;;;10144088;28;20045;-70
2022/10/09 13:49:38;;;;;;;6.25;4.72;;;;;;;;;;10135264;28;20821;-70
2022/10/09 13:54:35;;;;;;;7.15;4.50;;;;;;;;;;10146023;28;20050;-70
2022/10/09 13:59:31;;;;;;;6.85;4.30;;;;;;;;;;10139134;28;20489;-70
2022/10/09 14:04:28;;;;;;;9.02;4.13;;;;;;;;;;10149591;28;20043;-70
2022/10/09 14:09:24;;;;;;;5.32;4.15;;;;;;;;;;10157963;28;20381;-69
2022/10/09 14:14:21;;;;;;;5.15;4.03;;;;;;;;;;10157968;28;20050;-69
2022/10/09 14:19:17;;;;;;;9.45;4.80;;;;;;;;;;10148950;28;20052;-70
2022/10/09 14:24:14;;;;;;;7.20;4.07;;;;;;;;;;10150009;28;20057;-70
2022/10/09 14:29:10;;;;;;;6.57;3.83;;;;;;;;;;10144201;28;20563;-69
2022/10/09 14:34:07;;;;;;;10.02;3.88;;;;;;;;;;10152119;28;20060;-69
2022/10/09 14:39:03;;;;;;;5.97;4.30;;;;;;;;;;10146131;28;20540;-69
2022/10/09 14:43:59;;;;;;;9.10;4.75;;;;;;;;;;10142851;28;20046;-70
2022/10/09 14:48:55;;;;;;;6.60;5.00;;;;;;;;;;10153562;28;20508;-69
2022/10/09 14:53:56;;;;;;;10.38;4.65;;;;;;;;;;10142015;28;20045;-68
2022/10/09 14:58:53;;;;;;;8.88;4.90;;;;;;;;;;10145176;28;20651;-69
2022/10/09 15:03:49;;;;;;;8.57;3.90;;;;;;;;;;10149206;28;20066;-69
2022/10/09 15:08:46;;;;;;;9.55;4.65;;;;;;;;;;10145517;28;20136;-68
2022/10/09 15:13:42;;;;;;;8.00;4.15;;;;;;;;;;10146427;28;20142;-69
2022/10/09 15:18:38;;;;;;;5.93;3.90;;;;;;;;;;10138549;28;20816;-68
2022/10/09 15:23:35;;;;;;;10.43;4.57;;;;;;;;;;10147871;28;20077;-69
2022/10/09 15:28:31;;;;;;;7.57;4.53;;;;;;;;;;10149424;28;20062;-67
2022/10/09 15:33:28;;;;;;;6.88;4.13;;;;;;;;;;10148084;28;20042;-68
2022/10/09 15:38:24;;;;;;;6.30;4.32;;;;;;;;;;10148302;28;20424;-68
2022/10/09 15:43:22;;;;;;;7.85;4.85;;;;;;;;;;10143525;28;20046;-68
2022/10/09 15:48:20;;;;;;;6.75;4.80;;;;;;;;;;10144442;28;20699;-68
2022/10/09 15:53:18;;;;;;;6.70;4.85;;;;;;;;;;10159700;28;20248;-69
2022/10/09 15:58:15;;;;;;;7.60;5.47;;;;;;;;;;10150471;28;20054;-69
2022/10/09 16:03:11;;;;;;;8.35;5.30;;;;;;;;;;10157664;28;20887;-69
2022/10/09 16:08:10;;;;;;;8.95;5.38;;;;;;;;;;10157633;28;20049;-69
2022/10/09 16:13:06;;;;;;;7.53;5.72;;;;;;;;;;10155704;28;20046;-69
2022/10/09 16:18:02;;;;;;;8.10;6.32;;;;;;;;;;10162873;28;20692;-69
2022/10/09 16:22:58;;;;;;;7.60;6.00;;;;;;;;;;10153884;28;20061;-69
2022/10/09 16:27:55;;;;;;;7.72;6.63;;;;;;;;;;10150541;28;20042;-68
2022/10/09 16:32:52;;;;;;;6.63;5.95;;;;;;;;;;10148639;28;20053;-69
2022/10/09 16:37:50;;;;;;;8.07;7.38;;;;;;;;;;10153855;28;20052;-67
2022/10/09 16:42:47;;;;;;;10.65;8.15;;;;;;;;;;10159474;28;20053;-69
2022/10/09 16:47:44;;;;;;;11.63;7.90;;;;;;;;;;10158577;28;20114;-70
2022/10/09 16:52:40;;;;;;;9.27;8.38;;;;;;;;;;10158498;28;20190;-69
2022/10/09 16:57:37;;;;;;;12.00;8.77;;;;;;;;;;10155454;28;20054;-70
2022/10/09 17:02:33;;;;;;;11.40;8.57;;;;;;;;;;10145567;28;20042;-69
2022/10/09 17:07:29;;;;;;;10.07;9.00;;;;;;;;;;10140959;28;20034;-69
2022/10/09 17:12:25;;;;;;;9.77;8.80;;;;;;;;;;10151703;28;20065;-69
2022/10/09 17:17:22;;;;;;;13.43;9.23;;;;;;;;;;10147405;28;20054;-69
2022/10/09 17:22:19;;;;;;;10.27;9.32;;;;;;;;;;10145794;28;20052;-69
2022/10/09 17:27:15;;;;;;;14.80;10.93;;;;;;;;;;10146363;28;20041;-69
2022/10/09 17:32:11;;;;;;;10.55;9.52;;;;;;;;;;10127485;28;20050;-69
2022/10/09 17:37:07;;;;;;;11.13;9.73;;;;;;;;;;10130302;28;20061;-67
2022/10/09 17:42:04;;;;;;;11.40;10.27;;;;;;;;;;10134383;28;20680;-69
2022/10/09 17:47:00;;;;;;;11.77;10.50;;;;;;;;;;10144980;28;20046;-67
2022/10/09 17:51:56;;;;;;;13.15;11.88;;;;;;;;;;10150784;28;20061;-67
2022/10/09 17:56:53;;;;;;;18.77;15.05;;;;;;;;;;10155856;28;20062;-67
2022/10/09 18:01:49;;;;;;;17.20;14.43;;;;;;;;;;10149088;28;20097;-67
2022/10/09 18:06:45;;;;;;;14.45;13.00;;;;;;;;;;10139707;28;20643;-67
2022/10/09 18:11:42;;;;;;;17.33;14.48;;;;;;;;;;10139589;28;20057;-67
2022/10/09 18:16:38;;;;;;;14.27;12.77;;;;;;;;;;10149395;28;20500;-68
2022/10/09 18:21:41;;;;;;;13.85;12.45;;;;;;;;;;10143858;28;20058;-67
2022/10/09 18:26:39;;;;;;;13.98;12.75;;;;;;;;;;10152435;28;20133;-67
2022/10/09 18:31:36;;;;;;;14.15;12.93;;;;;;;;;;10149239;28;20045;-67
2022/10/09 18:36:33;;;;;;;14.80;13.32;;;;;;;;;;10151062;28;20038;-67
2022/10/09 18:41:30;;;;;;;15.07;13.57;;;;;;;;;;10157864;28;20049;-67
2022/10/09 18:46:28;;;;;;;15.45;14.05;;;;;;;;;;10155035;28;20043;-67
2022/10/09 18:51:25;;;;;;;15.48;14.15;;;;;;;;;;10148730;28;20503;-67
2022/10/09 18:56:21;;;;;;;17.67;15.63;;;;;;;;;;10149231;28;20046;-68
2022/10/09 19:01:18;;;;;;;16.20;14.65;;;;;;;;;;10148287;28;20045;-68
2022/10/09 19:06:14;;;;;;;15.82;14.65;;;;;;;;;;10144579;28;20050;-68
2022/10/09 19:11:13;;;;;;;15.15;14.02;;;;;;;;;;10153225;28;20058;-68
2022/10/09 19:16:09;;;;;;;15.50;14.00;;;;;;;;;;10150418;28;20054;-68
2022/10/09 19:21:05;;;;;;;15.32;14.05;;;;;;;;;;10148322;28;20053;-68
2022/10/09 19:26:02;;;;;;;16.52;14.90;;;;;;;;;;10149308;28;20045;-68
2022/10/09 19:31:01;;;;;;;14.95;13.43;;;;;;;;;;10155589;28;20054;-68
2022/10/09 19:35:57;;;;;;;16.70;14.38;;;;;;;;;;10137518;28;20092;-68
2022/10/09 19:40:53;;;;;;;16.23;14.65;;;;;;;;;;10152176;28;20046;-68
2022/10/09 19:45:58;;;;;;;15.70;14.13;;;;;;;;;;10149018;28;20069;-68
2022/10/09 19:50:54;;;;;;;16.23;15.02;;;;;;;;;;10150794;28;20054;-67
2022/10/09 19:55:51;;;;;;;16.45;15.10;;;;;;;;;;10132972;28;20053;-67
2022/10/09 20:00:47;;;;;;;17.23;15.65;;;;;;;;;;10139919;28;20057;-67
2022/10/09 20:05:43;;;;;;;16.63;15.18;;;;;;;;;;10151218;28;20050;-67
2022/10/09 20:10:40;;;;;;;17.00;15.68;;;;;;;;;;10139949;28;20045;-68
2022/10/09 20:15:39;;;;;;;16.60;15.20;;;;;;;;;;10144946;28;20401;-67
2022/10/09 20:20:36;;;;;;;15.73;14.35;;;;;;;;;;10141727;28;20053;-68
2022/10/09 20:25:32;;;;;;;15.70;14.30;;;;;;;;;;10140131;28;20046;-69
2022/10/09 20:30:28;;;;;;;16.33;14.88;;;;;;;;;;10151622;28;20497;-68
2022/10/09 20:35:25;;;;;;;15.07;13.85;;;;;;;;;;10163020;28;20046;-68
2022/10/09 20:40:21;;;;;;;15.65;14.43;;;;;;;;;;10158118;28;20045;-68
2022/10/09 20:45:17;;;;;;;15.55;14.25;;;;;;;;;;10162127;28;20057;-68
2022/10/09 20:50:13;;;;;;;15.70;14.23;;;;;;;;;;10162577;28;20046;-68
2022/10/09 20:55:10;;;;;;;15.68;14.30;;;;;;;;;;10160691;28;20523;-67
2022/10/09 21:00:06;;;;;;;14.38;13.27;;;;;;;;;;10155466;28;20057;-67
2022/10/09 21:05:03;;;;;;;15.32;13.93;;;;;;;;;;10151211;28;20667;-68
2022/10/09 21:09:59;;;;;;;13.38;12.27;;;;;;;;;;10153962;28;20053;-68
2022/10/09 21:14:55;;;;;;;14.18;12.88;;;;;;;;;;10153370;28;20069;-68
2022/10/09 21:19:53;;;;;;;13.82;12.55;;;;;;;;;;10154683;28;20531;-68
2022/10/09 21:24:49;;;;;;;12.98;11.82;;;;;;;;;;10154678;28;20061;-68
2022/10/09 21:29:46;;;;;;;15.07;13.10;;;;;;;;;;10153085;28;20412;-68
2022/10/09 21:34:42;;;;;;;13.70;12.18;;;;;;;;;;10149585;28;20046;-68
2022/10/09 21:39:38;;;;;;;13.05;11.00;;;;;;;;;;10154837;28;20161;-68
2022/10/09 21:44:34;;;;;;;13.15;12.15;;;;;;;;;;10150759;28;20075;-67
2022/10/09 21:49:31;;;;;;;11.43;10.25;;;;;;;;;;10152354;28;20504;-68
2022/10/09 21:54:27;;;;;;;11.85;10.73;;;;;;;;;;10149201;28;20038;-68
2022/10/09 21:59:23;;;;;;;11.45;9.68;;;;;;;;;;10149810;28;20042;-68
2022/10/09 22:04:20;;;;;;;11.35;9.38;;;;;;;;;;10149345;28;20042;-68
2022/10/09 22:09:16;;;;;;;10.48;9.57;;;;;;;;;;10150065;28;20046;-68
2022/10/09 22:14:12;;;;;;;10.35;9.35;;;;;;;;;;10152329;28;20047;-67
2022/10/09 22:19:08;;;;;;;10.50;9.50;;;;;;;;;;10150586;28;20046;-67
2022/10/09 22:24:05;;;;;;;11.55;10.40;;;;;;;;;;10152279;28;20078;-68
2022/10/09 22:29:01;;;;;;;11.57;10.40;;;;;;;;;;10150294;28;20398;-68
2022/10/09 22:34:00;;;;;;;12.07;10.45;;;;;;;;;;10149315;28;20518;-68
2022/10/09 22:38:57;;;;;;;11.00;9.90;;;;;;;;;;10162208;28;20042;-67
2022/10/09 22:43:55;;;;;;;11.10;9.95;;;;;;;;;;10146702;28;20042;-67
2022/10/09 22:48:52;;;;;;;11.27;10.27;;;;;;;;;;10150346;28;20057;-67
2022/10/09 22:53:48;;;;;;;11.25;10.23;;;;;;;;;;10150341;28;20149;-67
2022/10/09 22:58:45;;;;;;;11.73;10.60;;;;;;;;;;10150108;28;20054;-67
2022/10/09 23:03:41;;;;;;;12.32;10.52;;;;;;;;;;10150452;28;20044;-67
2022/10/09 23:08:39;;;;;;;11.50;10.40;;;;;;;;;;10145169;28;20054;-68
2022/10/09 23:13:36;;;;;;;11.15;10.13;;;;;;;;;;10148517;28;20076;-67
2022/10/09 23:18:33;;;;;;;12.50;11.32;;;;;;;;;;10150402;28;20050;-67
2022/10/09 23:23:30;;;;;;;12.40;11.48;;;;;;;;;;10161725;28;20068;-67
2022/10/09 23:28:26;;;;;;;13.20;11.82;;;;;;;;;;10153840;28;20053;-67
2022/10/09 23:33:22;;;;;;;12.48;10.77;;;;;;;;;;10153365;28;20109;-68
2022/10/09 23:38:19;;;;;;;12.93;11.90;;;;;;;;;;10144805;28;20045;-67
2022/10/09 23:43:15;;;;;;;13.77;12.57;;;;;;;;;;10151610;28;20049;-67
2022/10/09 23:48:11;;;;;;;15.02;13.43;;;;;;;;;;10147156;28;20090;-67
2022/10/09 23:53:07;;;;;;;13.40;12.32;;;;;;;;;;10151090;28;20050;-67
2022/10/09 23:58:04;;;;;;;13.65;12.38;;;;;;;;;;10135484;28;20057;-68
